KGNV 240753Z AUTO 26005KT 10SM CLR 18/17 A2994 RMK AO2 SLP135 T01830167